Time;durP1;ratioP1;P1;durP2;ratioP2;P2;SDS_P1;SDS_P2;PMS_P1;PMS_P2;Temp;Humidity;BMP_temperature;BMP_pressure;BME280_temperature;BME280_humidity;BME280_pressure;Samples;Min_cycle;Max_cycle;Signal;HPM_P1;HPM_P2
2023/01/23 00:01:14;;;;;;;3.40;1.88;;;;;;;8.74;100.00;97703.09;5085703;28;20055;-65
2023/01/23 00:03:41;;;;;;;3.40;2.17;;;;;;;8.79;100.00;97709.19;5085921;28;20117;-66
2023/01/23 00:06:12;;;;;;;0.85;0.85;;;;;;;8.82;100.00;97733.38;5078229;28;20045;-63
2023/01/23 00:08:40;;;;;;;0.70;0.70;;;;;;;8.81;100.00;97717.13;5065551;28;20091;-61
2023/01/23 00:11:09;;;;;;;0.80;0.80;;;;;;;8.83;100.00;97706.56;5064115;28;20084;-65
2023/01/23 00:13:36;;;;;;;2.20;2.10;;;;;;;8.81;100.00;97709.66;5063597;28;20408;-60
2023/01/23 00:16:30;;;;;;;1.05;1.05;;;;;;;8.86;100.00;97701.16;5065080;28;20477;-61
2023/01/23 00:18:57;;;;;;;2.28;2.17;;;;;;;8.91;100.00;97719.47;5064688;28;20053;-65
2023/01/23 00:21:26;;;;;;;0.73;0.73;;;;;;;8.92;100.00;97715.53;5064348;28;20113;-65
2023/01/23 00:23:56;;;;;;;1.13;1.13;;;;;;;8.99;100.00;97713.03;5065263;28;20136;-66
2023/01/23 00:26:25;;;;;;;0.85;0.85;;;;;;;8.66;100.00;97674.41;5063380;28;20087;-65
2023/01/23 00:28:53;;;;;;;0.90;0.90;;;;;;;8.93;100.00;97723.50;5065103;28;20438;-64
2023/01/23 00:31:23;;;;;;;0.63;0.63;;;;;;;8.96;100.00;97710.97;5051419;28;20056;-60
2023/01/23 00:33:55;;;;;;;1.35;1.35;;;;;;;9.08;100.00;97725.59;5044762;28;20045;-66
2023/01/23 00:36:23;;;;;;;0.70;0.70;;;;;;;9.12;100.00;97725.69;5045043;28;20048;-62
2023/01/23 00:38:50;;;;;;;0.73;0.73;;;;;;;9.05;100.00;97714.41;5061873;28;20082;-65
2023/01/23 00:41:16;;;;;;;1.15;1.15;;;;;;;8.44;100.00;97627.09;5064623;28;20056;-61
2023/01/23 00:43:45;;;;;;;0.95;0.95;;;;;;;9.06;100.00;97727.06;5064403;28;20157;-61
2023/01/23 00:46:12;;;;;;;1.13;1.10;;;;;;;9.09;100.00;97740.19;5055589;28;20045;-66
2023/01/23 00:48:39;;;;;;;0.70;0.70;;;;;;;9.12;100.00;97737.56;5043003;28;20130;-66
2023/01/23 00:51:05;;;;;;;3.28;2.92;;;;;;;9.11;100.00;97740.69;5044695;28;20110;-60
2023/01/23 00:53:32;;;;;;;0.70;0.70;;;;;;;8.97;100.00;97723.63;5044450;28;20128;-66
2023/01/23 00:55:58;;;;;;;0.80;0.80;;;;;;;9.04;100.00;97740.44;5053233;28;20074;-61
2023/01/23 00:58:25;;;;;;;0.80;0.80;;;;;;;8.75;100.00;97671.56;5062041;28;20503;-66
2023/01/23 01:00:52;;;;;;;0.70;0.70;;;;;;;9.10;100.00;97739.06;5064822;28;20487;-61
2023/01/23 01:03:19;;;;;;;0.70;0.70;;;;;;;8.92;100.00;97737.66;5064199;28;20504;-63
2023/01/23 01:05:46;;;;;;;0.70;0.70;;;;;;;9.09;100.00;97749.31;5062911;28;20053;-61
2023/01/23 01:08:13;;;;;;;5.03;4.20;;;;;;;8.88;100.00;97731.22;5063567;28;20056;-64
2023/01/23 01:10:40;;;;;;;1.25;1.20;;;;;;;8.43;100.00;97658.59;5062902;28;20040;-61
2023/01/23 01:13:08;;;;;;;0.90;0.90;;;;;;;8.88;100.00;97725.69;5064223;28;20076;-60
2023/01/23 01:15:35;;;;;;;0.82;0.82;;;;;;;9.09;100.00;97740.19;5064530;28;20135;-65
2023/01/23 01:18:01;;;;;;;0.60;0.60;;;;;;;9.05;100.00;97747.59;5046731;28;20317;-61
2023/01/23 01:20:28;;;;;;;1.40;1.40;;;;;;;9.08;100.00;97746.88;5042863;28;20060;-62
2023/01/23 01:22:57;;;;;;;3.50;2.13;;;;;;;9.13;100.00;97744.72;5046262;28;20531;-61
2023/01/23 01:25:24;;;;;;;13.55;2.10;;;;;;;9.10;100.00;97742.63;5064310;28;20056;-60
2023/01/23 01:27:51;;;;;;;1.00;1.00;;;;;;;8.57;100.00;97678.41;5063829;28;20087;-60
2023/01/23 01:30:18;;;;;;;2.90;2.65;;;;;;;8.97;100.00;97756.78;5062744;28;20060;-62
2023/01/23 01:32:45;;;;;;;0.90;0.90;;;;;;;8.72;100.00;97716.44;5069932;28;20051;-60
2023/01/23 01:35:12;;;;;;;3.03;2.55;;;;;;;8.93;100.00;97750.34;5064256;28;20085;-64
2023/01/23 01:37:40;;;;;;;2.83;1.98;;;;;;;8.87;100.00;97748.91;5063950;28;20190;-61
2023/01/23 01:40:12;;;;;;;0.73;0.73;;;;;;;8.72;100.00;97721.97;5063324;28;20125;-60
2023/01/23 01:42:59;;;;;;;0.80;0.80;;;;;;;8.78;100.00;97742.69;5064411;28;20052;-61
2023/01/23 01:45:54;;;;;;;2.55;2.35;;;;;;;8.81;100.00;97764.09;5062365;28;20063;-60
2023/01/23 01:48:24;;;;;;;2.22;2.03;;;;;;;8.81;100.00;97769.63;5050171;28;20048;-66
2023/01/23 01:50:52;;;;;;;0.70;0.70;;;;;;;8.76;100.00;97751.31;5043934;28;20060;-61
2023/01/23 01:53:24;;;;;;;1.33;1.23;;;;;;;8.93;100.00;97761.38;5044103;28;20134;-65
2023/01/23 01:55:52;;;;;;;1.63;1.52;;;;;;;9.00;100.00;97767.97;5037031;28;20076;-66
2023/01/23 01:58:20;;;;;;;0.88;0.88;;;;;;;8.46;100.00;97691.84;5061709;28;20080;-65
2023/01/23 02:00:46;;;;;;;0.70;0.70;;;;;;;8.93;100.00;97772.44;5063874;28;20459;-60
2023/01/23 02:03:15;;;;;;;0.60;0.60;;;;;;;9.02;100.00;97771.19;5063425;28;20048;-66
2023/01/23 02:05:45;;;;;;;1.00;1.00;;;;;;;8.95;100.00;97775.66;5062435;28;20056;-61
2023/01/23 02:08:14;;;;;;;0.70;0.70;;;;;;;8.86;100.00;97767.47;5063915;28;20130;-60
2023/01/23 02:10:42;;;;;;;0.70;0.70;;;;;;;8.91;100.00;97791.31;5064033;28;20044;-60
2023/01/23 02:13:34;;;;;;;0.98;0.98;;;;;;;8.22;100.00;97718.56;5067646;28;20052;-60
2023/01/23 02:16:10;;;;;;;0.70;0.70;;;;;;;8.80;100.00;97784.59;5066352;28;20072;-65
2023/01/23 02:18:42;;;;;;;0.60;0.60;;;;;;;8.92;100.00;97793.72;5062260;28;20052;-61
2023/01/23 02:21:10;;;;;;;0.70;0.70;;;;;;;9.01;100.00;97793.63;5047412;28;20416;-62
2023/01/23 02:23:52;;;;;;;0.70;0.70;;;;;;;9.14;100.00;97795.25;5047185;28;20562;-66
2023/01/23 02:26:28;;;;;;;0.80;0.80;;;;;;;9.04;100.00;97793.75;5060752;28;20056;-66
2023/01/23 02:28:54;;;;;;;0.70;0.70;;;;;;;9.05;100.00;97797.31;5047229;28;20063;-62
2023/01/23 02:31:22;;;;;;;0.70;0.70;;;;;;;9.04;100.00;97801.25;5047429;28;20049;-60
2023/01/23 02:33:51;;;;;;;1.35;1.00;;;;;;;9.04;100.00;97807.56;5046935;28;20057;-66
2023/01/23 02:36:22;;;;;;;1.85;0.88;;;;;;;9.00;100.00;97800.28;5047557;28;20057;-61
2023/01/23 02:38:59;;;;;;;1.42;1.10;;;;;;;8.91;100.00;97807.88;5047304;28;20136;-60
2023/01/23 02:41:34;;;;;;;0.82;0.82;;;;;;;8.70;100.00;97793.31;5046546;28;20087;-61
2023/01/23 02:44:12;;;;;;;0.80;0.80;;;;;;;8.66;100.00;97773.03;5046838;28;20488;-60
2023/01/23 02:46:39;;;;;;;0.88;0.88;;;;;;;8.72;100.00;97799.28;5046432;28;20130;-65
2023/01/23 02:49:05;;;;;;;6.82;3.53;;;;;;;8.61;100.00;97776.00;5066689;28;20133;-65
2023/01/23 02:51:32;;;;;;;0.70;0.70;;;;;;;8.34;100.00;97757.25;5066479;28;20049;-62
2023/01/23 02:53:59;;;;;;;1.10;1.10;;;;;;;8.63;100.00;97801.34;5066437;28;20101;-65
2023/01/23 02:56:26;;;;;;;2.10;1.10;;;;;;;8.67;100.00;97791.22;5066004;28;20044;-60
2023/01/23 03:01:38;;;;;;;0.68;0.68;;;;;;;8.60;100.00;97807.53;5066472;28;20139;-63
2023/01/23 03:04:05;;;;;;;0.70;0.70;;;;;;;8.53;100.00;97802.56;5066074;28;20503;-60
2023/01/23 03:06:37;;;;;;;1.67;1.58;;;;;;;8.41;100.00;97798.94;5065163;28;20044;-66
2023/01/23 03:09:07;;;;;;;8.45;4.82;;;;;;;8.14;100.00;97778.16;5066897;28;20735;-61
2023/01/23 03:11:35;;;;;;;10.18;4.07;;;;;;;7.92;100.00;97797.00;5066716;28;20059;-66
2023/01/23 03:14:02;;;;;;;6.30;5.75;;;;;;;8.07;100.00;97793.66;5066122;28;20539;-66
2023/01/23 03:16:28;;;;;;;3.45;3.15;;;;;;;7.93;100.00;97798.63;5065908;28;20061;-60
2023/01/23 03:18:56;;;;;;;10.52;2.88;;;;;;;7.96;100.00;97792.44;5064835;28;20560;-66
2023/01/23 03:21:23;;;;;;;1.60;1.45;;;;;;;7.78;100.00;97797.25;5058270;28;20519;-60
2023/01/23 03:23:49;;;;;;;0.63;0.63;;;;;;;7.81;100.00;97779.25;5081425;28;20088;-61
2023/01/23 03:26:16;;;;;;;2.33;2.08;;;;;;;7.70;100.00;97768.59;5065738;28;20123;-60
2023/01/23 03:31:28;;;;;;;0.93;0.93;;;;;;;7.74;100.00;97808.13;5065265;28;20079;-66
2023/01/23 03:33:55;;;;;;;4.90;2.75;;;;;;;7.57;100.00;97775.16;5066073;28;20076;-61
2023/01/23 03:36:22;;;;;;;1.10;1.10;;;;;;;7.92;100.00;97803.31;5064199;28;20488;-61
2023/01/23 03:41:34;;;;;;;0.60;0.60;;;;;;;8.04;100.00;97805.34;5065662;28;20071;-66
2023/01/23 03:44:00;;;;;;;0.60;0.60;;;;;;;8.20;100.00;97798.09;5066115;28;20109;-62
2023/01/23 03:46:27;;;;;;;0.93;0.90;;;;;;;8.11;100.00;97789.09;5065386;28;20057;-61
2023/01/23 03:48:53;;;;;;;0.90;0.90;;;;;;;8.08;100.00;97770.44;5062721;28;20080;-66
2023/01/23 03:51:20;;;;;;;7.93;3.15;;;;;;;7.95;100.00;97812.91;5045580;28;20115;-66
2023/01/23 03:53:46;;;;;;;2.47;0.93;;;;;;;7.96;100.00;97797.94;5046492;28;20852;-66
2023/01/23 03:56:13;;;;;;;1.35;1.25;;;;;;;7.80;100.00;97744.50;5047192;28;20056;-60
2023/01/23 03:58:40;;;;;;;1.27;1.17;;;;;;;8.11;100.00;97798.16;5065549;28;20494;-60
2023/01/23 04:01:08;;;;;;;2.03;1.65;;;;;;;8.25;100.00;97817.25;5063996;28;20090;-61
2023/01/23 04:03:35;;;;;;;4.95;3.20;;;;;;;8.17;100.00;97818.09;5047644;28;20167;-61
2023/01/23 04:06:02;;;;;;;1.45;1.35;;;;;;;7.91;100.00;97756.75;5063256;28;20473;-61
2023/01/23 04:08:28;;;;;;;13.57;4.43;;;;;;;8.11;100.00;97824.97;5065420;28;20403;-66
2023/01/23 04:11:06;;;;;;;0.70;0.70;;;;;;;8.20;100.00;97825.69;5065107;28;20060;-60
2023/01/23 04:13:33;;;;;;;1.00;1.00;;;;;;;7.88;100.00;97779.50;5049941;28;20483;-66
2023/01/23 04:16:01;;;;;;;3.42;2.67;;;;;;;7.88;100.00;97804.31;5044936;28;20052;-66
2023/01/23 04:18:28;;;;;;;9.73;1.00;;;;;;;7.89;100.00;97781.13;5045192;28;20490;-60
2023/01/23 04:20:55;;;;;;;1.45;1.35;;;;;;;7.80;100.00;97755.53;5045363;28;20126;-66
2023/01/23 04:23:22;;;;;;;1.25;1.25;;;;;;;8.28;100.00;97827.63;5046319;28;20053;-66
2023/01/23 04:25:50;;;;;;;2.10;1.95;;;;;;;6.25;100.00;97495.13;5045266;28;20049;-66
2023/01/23 04:28:17;;;;;;;4.20;2.53;;;;;;;8.18;100.00;97830.72;5044761;28;20064;-59
2023/01/23 04:30:44;;;;;;;2.90;2.53;;;;;;;8.27;100.00;97834.25;5044511;28;20084;-60
2023/01/23 04:33:11;;;;;;;1.35;1.35;;;;;;;8.25;100.00;97842.88;5042919;28;20057;-65
2023/01/23 04:35:38;;;;;;;2.38;2.17;;;;;;;8.12;100.00;97846.69;5044881;28;20379;-66
2023/01/23 04:38:04;;;;;;;0.70;0.70;;;;;;;7.84;100.00;97806.16;5044497;28;20061;-60
2023/01/23 04:40:31;;;;;;;1.60;1.52;;;;;;;8.09;100.00;97825.28;5044567;28;20134;-61
2023/01/23 04:42:58;;;;;;;9.75;1.50;;;;;;;8.08;100.00;97850.47;5043274;28;20052;-66
2023/01/23 04:45:24;;;;;;;0.60;0.60;;;;;;;8.06;100.00;97852.75;5044852;28;20103;-61
2023/01/23 04:47:51;;;;;;;7.43;6.93;;;;;;;7.81;100.00;97812.34;5058074;28;20048;-66
2023/01/23 04:50:17;;;;;;;0.65;0.65;;;;;;;8.19;100.00;97857.22;5064122;28;20111;-66
2023/01/23 04:52:44;;;;;;;0.60;0.60;;;;;;;8.24;100.00;97865.28;5063057;28;20059;-65
2023/01/23 04:55:11;;;;;;;0.68;0.68;;;;;;;8.28;100.00;97866.25;5064594;28;20072;-67
2023/01/23 04:57:38;;;;;;;4.82;1.27;;;;;;;8.04;100.00;97816.38;5063087;28;20048;-66
2023/01/23 05:00:05;;;;;;;1.00;1.00;;;;;;;8.12;100.00;97857.72;5064640;28;20145;-60
2023/01/23 05:02:32;;;;;;;0.60;0.60;;;;;;;8.20;100.00;97875.38;5044475;28;20048;-60
2023/01/23 05:04:58;;;;;;;9.10;1.60;;;;;;;8.06;100.00;97891.38;5043070;28;20091;-66
2023/01/23 05:07:25;;;;;;;1.67;1.58;;;;;;;8.12;100.00;97885.34;5043823;28;20053;-66
2023/01/23 05:09:52;;;;;;;0.85;0.85;;;;;;;8.06;100.00;97888.59;5051774;28;20052;-67
2023/01/23 05:12:18;;;;;;;5.43;3.00;;;;;;;7.39;100.00;97801.19;5064118;28;20130;-65
2023/01/23 05:14:45;;;;;;;2.35;1.77;;;;;;;7.74;100.00;97873.53;5064145;28;20144;-67
2023/01/23 05:17:11;;;;;;;2.97;2.15;;;;;;;7.53;100.00;97898.25;5056041;28;20075;-66
2023/01/23 05:19:38;;;;;;;0.88;0.85;;;;;;;7.74;100.00;97906.63;5045258;28;20092;-60
2023/01/23 05:22:04;;;;;;;1.80;0.98;;;;;;;7.71;100.00;97891.53;5062260;28;20588;-59
2023/01/23 05:24:31;;;;;;;1.45;1.35;;;;;;;7.74;100.00;97895.59;5062726;28;21076;-59
2023/01/23 05:26:58;;;;;;;0.80;0.80;;;;;;;7.74;100.00;97912.13;5063731;28;20131;-66
2023/01/23 05:29:24;;;;;;;6.82;3.30;;;;;;;7.73;100.00;97914.06;5053331;28;20081;-66
2023/01/23 05:31:51;;;;;;;2.25;1.85;;;;;;;7.07;100.00;97836.78;5043913;28;20065;-66
2023/01/23 05:34:17;;;;;;;2.67;2.05;;;;;;;7.64;100.00;97927.09;5042882;28;20045;-59
2023/01/23 05:36:44;;;;;;;0.95;0.95;;;;;;;7.71;100.00;97919.09;5043482;28;20514;-61
2023/01/23 05:39:11;;;;;;;1.88;1.77;;;;;;;7.57;100.00;97929.53;5042468;28;20499;-67
2023/01/23 05:41:37;;;;;;;0.60;0.60;;;;;;;7.21;100.00;97860.25;5043706;28;20480;-66
2023/01/23 05:44:04;;;;;;;4.55;4.22;;;;;;;7.70;100.00;97934.03;5056951;28;20122;-58
2023/01/23 05:46:30;;;;;;;1.15;1.10;;;;;;;7.59;100.00;97940.22;5067376;28;20102;-62
2023/01/23 05:48:57;;;;;;;0.70;0.70;;;;;;;7.63;100.00;97939.25;5067610;28;20125;-59
2023/01/23 05:51:30;;;;;;;0.60;0.60;;;;;;;7.78;100.00;97946.16;5067753;28;20109;-68
2023/01/23 05:54:01;;;;;;;0.60;0.60;;;;;;;7.79;100.00;97922.16;5077615;28;20044;-58
2023/01/23 05:56:28;;;;;;;0.70;0.70;;;;;;;7.80;100.00;97949.41;5086827;28;20110;-66
2023/01/23 05:58:55;;;;;;;4.15;3.80;;;;;;;7.83;100.00;97953.44;5047851;28;20507;-59
2023/01/23 06:01:21;;;;;;;2.72;2.55;;;;;;;7.84;100.00;97960.59;5048886;28;20161;-66
2023/01/23 06:03:48;;;;;;;5.63;1.73;;;;;;;7.96;100.00;97971.75;5067837;28;20098;-59
2023/01/23 06:06:15;;;;;;;3.55;1.38;;;;;;;7.72;100.00;97964.84;5068077;28;20067;-66
2023/01/23 06:08:41;;;;;;;1.20;1.20;;;;;;;7.64;100.00;97945.56;5066426;28;20055;-59
2023/01/23 06:11:08;;;;;;;0.73;0.73;;;;;;;7.88;100.00;97972.59;5051345;28;20494;-59
2023/01/23 06:13:35;;;;;;;1.55;1.45;;;;;;;7.90;100.00;97970.31;5062257;28;20057;-61
2023/01/23 06:16:01;;;;;;;1.02;1.02;;;;;;;7.95;100.00;97983.94;5063029;28;20549;-59
2023/01/23 06:18:28;;;;;;;0.65;0.65;;;;;;;7.77;100.00;97955.59;5047208;28;20084;-58
2023/01/23 06:21:01;;;;;;;1.70;1.60;;;;;;;7.69;100.00;97948.97;5047106;28;20057;-66
2023/01/23 06:23:28;;;;;;;5.17;4.83;;;;;;;7.87;100.00;97987.53;5047251;28;20132;-58
2023/01/23 06:25:58;;;;;;;4.60;1.75;;;;;;;7.86;100.00;97997.75;5047478;28;20307;-66
2023/01/23 06:28:25;;;;;;;1.27;1.25;;;;;;;7.74;100.00;97962.56;5045579;28;20061;-65
2023/01/23 06:30:51;;;;;;;2.20;1.40;;;;;;;7.63;100.00;97946.72;5047288;28;20451;-58
2023/01/23 06:33:18;;;;;;;0.80;0.80;;;;;;;7.71;100.00;97941.16;5048614;28;20424;-59
2023/01/23 06:35:44;;;;;;;0.60;0.60;;;;;;;8.06;100.00;97990.69;5061157;28;20470;-65
2023/01/23 06:38:11;;;;;;;1.60;1.50;;;;;;;8.00;100.00;98008.59;5046749;28;20107;-66
2023/01/23 06:40:38;;;;;;;2.45;2.35;;;;;;;8.03;100.00;97997.66;5046911;28;20168;-58
2023/01/23 06:43:05;;;;;;;0.70;0.70;;;;;;;8.01;100.00;98033.09;5051210;28;20052;-59
2023/01/23 06:45:31;;;;;;;0.65;0.65;;;;;;;8.01;100.00;97988.94;5064501;28;20052;-60
2023/01/23 06:47:58;;;;;;;0.60;0.60;;;;;;;7.05;100.00;97844.59;5060000;28;20609;-59
2023/01/23 06:50:24;;;;;;;6.53;3.80;;;;;;;7.77;100.00;97996.13;5062575;28;20589;-57
2023/01/23 06:52:51;;;;;;;0.80;0.80;;;;;;;7.36;100.00;97945.19;5066095;28;20107;-57
2023/01/23 06:55:19;;;;;;;0.70;0.70;;;;;;;7.37;100.00;97919.22;5066208;28;20131;-57
2023/01/23 06:57:45;;;;;;;4.57;3.33;;;;;;;4.42;100.00;97432.16;5060016;28;20059;-59
2023/01/23 07:00:13;;;;;;;2.83;2.15;;;;;;;7.84;100.00;98000.00;5045776;28;20511;-58
